createdAt,value
2022-11-10T00:01:11.917Z,331.47
2022-11-10T00:11:35.392Z,300.63
2022-11-10T00:21:57.258Z,308.07
2022-11-10T00:32:20.859Z,305.97
2022-11-10T00:42:43.130Z,288.50
2022-11-10T00:53:06.718Z,266.00
2022-11-10T01:03:28.565Z,266.77
2022-11-10T01:13:54.324Z,268.60
2022-11-10T01:24:22.028Z,262.77
2022-11-10T01:34:46.065Z,260.77
2022-11-10T01:45:51.518Z,254.40
2022-11-10T01:56:15.841Z,248.17
2022-11-10T02:06:41.123Z,249.10
2022-11-10T02:17:04.671Z,244.70
2022-11-10T02:27:28.073Z,256.63
2022-11-10T02:37:49.983Z,267.57
2022-11-10T02:48:15.240Z,316.07
2022-11-10T02:58:37.256Z,346.90
2022-11-10T03:09:01.145Z,345.17
2022-11-10T03:19:23.021Z,337.43
2022-11-10T03:29:46.307Z,367.80
2022-11-10T03:40:10.124Z,330.37
2022-11-10T03:50:33.362Z,282.20
2022-11-10T04:00:55.656Z,271.90
2022-11-10T04:11:39.149Z,260.63
2022-11-10T04:22:00.796Z,247.87
2022-11-10T04:32:24.020Z,251.70
2022-11-10T04:42:45.814Z,244.83
2022-11-10T04:53:09.610Z,241.67
2022-11-10T05:03:31.387Z,242.97
2022-11-10T05:13:54.518Z,242.10
2022-11-10T05:24:16.511Z,238.87
2022-11-10T05:34:39.742Z,240.70
2022-11-10T05:45:01.876Z,242.83
2022-11-10T05:55:27.838Z,244.43
2022-11-10T06:05:49.757Z,229.77
2022-11-10T06:16:13.218Z,237.20
2022-11-10T06:26:35.193Z,244.43
2022-11-10T06:36:58.489Z,244.03
2022-11-10T06:47:20.848Z,236.83
2022-11-10T06:57:44.097Z,241.03
2022-11-10T07:08:07.792Z,246.83
2022-11-10T07:18:31.015Z,246.80
2022-11-10T07:28:53.074Z,256.23
2022-11-10T07:39:16.703Z,252.47
2022-11-10T07:49:38.640Z,254.00
2022-11-10T08:00:02.072Z,253.73
2022-11-10T08:10:23.965Z,252.87
2022-11-10T08:20:48.650Z,252.67
2022-11-10T08:31:10.413Z,252.97
2022-11-10T08:41:33.907Z,241.37
2022-11-10T08:51:56.001Z,243.10
2022-11-10T09:02:19.375Z,266.87
2022-11-10T09:12:41.334Z,276.13
2022-11-10T09:23:08.251Z,256.50
2022-11-10T09:33:30.273Z,246.90
2022-11-10T09:44:03.863Z,241.50
2022-11-10T09:54:37.215Z,258.87
2022-11-10T10:05:35.421Z,253.60
2022-11-10T10:16:18.465Z,251.50
2022-11-10T10:26:46.304Z,233.03
2022-11-10T10:37:24.560Z,233.63
2022-11-10T10:47:49.513Z,240.10
2022-11-10T10:58:24.036Z,237.33
2022-11-10T11:09:01.288Z,235.60
2022-11-10T11:19:26.280Z,237.77
2022-11-10T11:30:11.092Z,237.93
2022-11-10T11:40:47.905Z,236.73
2022-11-10T11:51:17.933Z,238.77
2022-11-10T12:01:57.380Z,234.00
2022-11-10T12:13:00.638Z,233.77
2022-11-10T12:23:36.298Z,228.83
2022-11-10T12:34:07.141Z,227.13
2022-11-10T12:44:33.389Z,223.03
2022-11-10T12:54:56.625Z,223.27
2022-11-10T13:05:29.843Z,229.73
2022-11-10T13:15:57.096Z,226.60
2022-11-10T13:26:52.798Z,231.50
2022-11-10T13:37:53.364Z,232.00
2022-11-10T13:48:30.776Z,225.23
2022-11-10T13:58:54.166Z,224.60
2022-11-10T14:09:29.146Z,234.93
2022-11-10T14:19:52.652Z,220.30
2022-11-10T14:30:25.633Z,223.70
2022-11-10T14:40:49.706Z,222.63
2022-11-10T14:51:17.044Z,228.20
2022-11-10T15:01:44.912Z,220.77
2022-11-10T15:12:22.869Z,225.60
2022-11-10T15:22:50.258Z,218.07
2022-11-10T15:33:12.692Z,222.67
2022-11-10T15:43:35.998Z,227.57
2022-11-10T15:53:58.158Z,215.93
2022-11-10T16:04:21.172Z,214.03
2022-11-10T16:14:47.596Z,215.67
2022-11-10T16:25:21.507Z,226.43
2022-11-10T16:35:45.707Z,222.03
2022-11-10T16:46:20.297Z,226.67
2022-11-10T16:56:42.396Z,231.40
2022-11-10T17:07:10.885Z,236.97
2022-11-10T17:17:33.389Z,235.93
2022-11-10T17:27:56.846Z,231.80
2022-11-10T17:38:24.161Z,226.30
2022-11-10T17:48:47.964Z,242.43
2022-11-10T17:59:10.119Z,232.93
2022-11-10T18:09:33.509Z,239.23
2022-11-10T18:19:55.204Z,256.03
2022-11-10T18:30:19.574Z,252.47
2022-11-10T18:40:41.946Z,233.43
2022-11-10T18:51:08.549Z,238.90
2022-11-10T19:01:30.806Z,262.93
2022-11-10T19:11:55.023Z,250.10
2022-11-10T19:22:17.138Z,253.20
2022-11-10T19:32:40.604Z,254.17
2022-11-10T19:43:02.747Z,249.33
2022-11-10T19:53:26.039Z,254.00
2022-11-10T20:03:48.306Z,255.30
2022-11-10T20:14:13.139Z,261.63
2022-11-10T20:24:36.155Z,266.00
2022-11-10T20:35:01.608Z,263.30
2022-11-10T20:45:24.209Z,264.67
2022-11-10T20:55:54.917Z,244.93
2022-11-10T21:06:17.486Z,244.97
2022-11-10T21:16:41.328Z,252.03
2022-11-10T21:27:03.529Z,266.77
2022-11-10T21:37:27.109Z,259.13
2022-11-10T21:47:49.105Z,245.10
2022-11-10T21:58:12.364Z,259.87
2022-11-10T22:08:35.176Z,255.50
2022-11-10T22:18:59.168Z,264.10
2022-11-10T22:29:21.070Z,252.33
2022-11-10T22:40:02.188Z,263.50
2022-11-10T22:50:39.372Z,254.33
2022-11-10T23:01:08.211Z,250.70
2022-11-10T23:11:32.764Z,251.53
2022-11-10T23:21:55.960Z,261.03
2022-11-10T23:32:17.880Z,239.47
2022-11-10T23:42:40.982Z,237.43
2022-11-10T23:53:02.958Z,249.73
